الصفحة الرئيسية
METAR-TAF:

METAR-TAF

مطار :

بونبي, مايكرونيزيا

دائرة عرض: 06-59N, خط طول: 158-12E, ارتفاع: 2 متر

مراقبة الطقس الحالي

تاريخ ووقت الإصدار 11ساعات و 11 دقيقة قبل الساعة 04:50UTC
ريح 8 عقدة من الشرق/الجنوب الشرقي
درجة الحرارة 28°درجة مئوية
الرطوبة 84%
ضغط 1009 hPa
الرؤية: 24.1 كم
غيوم مفككة على ارتفاع 1600 قدم, مزن ركامية عمودية.
ملبد بالغيوم على ارتفاع 13000 قدم

METAR: PTPN 220450Z 11008KT 15SM BKN016TCU OVC130 28/25 A2981 RMK TCU ALQDS LAST

زمن: 03:01 (16:01 UTC)

توقعات

تاريخ ووقت الإصدار 12ساعات و 56 دقيقة قبل الساعة 03:05UTC
التوقعات صالحة من22 الساعة 03 UTC إلى 22 الساعة 24 UTC
ريح 10 عقدة من الشرق
الرؤية: 10 كم
غيوم مفككة على ارتفاع 1800 قدم
غيوم مفككة على ارتفاع 13000 قدم
زخات في الجوار
مؤقت
من 22 الساعة 03 UTC إلى 22 الساعة 07 UTC
ريح 12 عقدة من الشرق تتزايد حتى 22 عقدة
الرؤية: 4.8 كم
ملبد بالغيوم على ارتفاع 1800 قدم
زخات من المطر الغزيرة

TAF: PTPN 220305Z 2203/2224 10010KT P6SM VCSH BKN018 BKN130 TEMPO 2203/2207 10012G22KT 3SM +SHRA OVC018

أرصاد الطقس والتوقعات من أكثر من 4000 مطار (تقارير الطقس للمطار METAR والتنبؤ بالطقس بالمطارTAF).

المحطات المتاحة هي النقط الصفراء والحمراء على الخريطة.

حرك المؤشر فوق النقطة لمعرفة اسم المحطة.

ثم انقر لمعرفة أرصاد وتوقعات الطقس.

لتغيير الخارطة: اضغط على الأزرار الخضراء مع رمز الصليب الأسود للتكبير. على الزر الأخضر مع شرطة للتصغير، أو على الأسهم الخضراء للخرائط المجاورة.


METAR-TAF: